Time;durP1;ratioP1;P1;durP2;ratioP2;P2;SDS_P1;SDS_P2;PMS_P1;PMS_P2;Temp;Humidity;BMP_temperature;BMP_pressure;BME280_temperature;BME280_humidity;BME280_pressure;Samples;Min_cycle;Max_cycle;Signal;HPM_P1;HPM_P2
2022/11/24 00:00:05;;;;;;;12.63;3.17;;;;;;;8.16;78.75;99879.81;4189444;28;20043;-61
2022/11/24 00:02:08;;;;;;;17.42;3.88;;;;;;;8.21;78.45;99881.63;4181735;28;20060;-61
2022/11/24 00:04:11;;;;;;;10.93;3.05;;;;;;;8.10;78.69;99882.31;4181134;28;20056;-61
2022/11/24 00:06:15;;;;;;;10.02;3.05;;;;;;;8.12;79.11;99880.63;4190411;28;20072;-61
2022/11/24 00:08:18;;;;;;;11.30;3.07;;;;;;;8.23;78.82;99889.41;4185292;28;20298;-61
2022/11/24 00:10:21;;;;;;;10.50;3.08;;;;;;;8.26;78.43;99886.88;4189085;28;20036;-61
2022/11/24 00:12:23;;;;;;;10.00;3.25;;;;;;;8.23;78.55;99888.56;4196906;28;20113;-61
2022/11/24 00:14:26;;;;;;;8.15;2.67;;;;;;;8.14;79.09;99897.91;4192776;28;20512;-61
2022/11/24 00:16:32;;;;;;;11.77;2.75;;;;;;;8.18;78.91;99896.25;4180276;28;20087;-61
2022/11/24 00:18:35;;;;;;;11.38;3.35;;;;;;;8.19;78.88;99897.97;4183139;28;20123;-61
2022/11/24 00:20:38;;;;;;;8.65;3.17;;;;;;;8.20;78.95;99904.91;4195677;28;20036;-61
2022/11/24 00:22:41;;;;;;;9.60;3.65;;;;;;;8.19;78.96;99898.88;4185046;28;20140;-61
2022/11/24 00:24:44;;;;;;;15.18;3.40;;;;;;;8.22;79.10;99908.41;4189313;28;20418;-61
2022/11/24 00:26:46;;;;;;;9.23;2.92;;;;;;;8.27;79.15;99900.72;4184364;28;20044;-61
2022/11/24 00:28:51;;;;;;;12.60;2.80;;;;;;;8.24;79.14;99898.06;4181354;28;20083;-61
2022/11/24 00:30:54;;;;;;;10.90;3.67;;;;;;;8.22;79.35;99895.47;4195289;28;20044;-61
2022/11/24 00:32:58;;;;;;;13.75;3.42;;;;;;;8.26;79.04;99899.81;4187265;28;20041;-61
2022/11/24 00:35:01;;;;;;;11.57;2.80;;;;;;;8.26;79.26;99899.81;4188245;28;20040;-61
2022/11/24 00:37:04;;;;;;;11.75;2.70;;;;;;;8.28;79.34;99902.44;4163775;28;20049;-61
2022/11/24 00:39:08;;;;;;;9.23;3.08;;;;;;;8.30;79.37;99900.75;4180270;28;20049;-61
2022/11/24 00:41:11;;;;;;;9.95;3.40;;;;;;;8.30;79.40;99914.56;4182420;28;20076;-61
2022/11/24 00:43:14;;;;;;;12.15;3.15;;;;;;;8.31;79.19;99912.81;4197030;28;20037;-61
2022/11/24 00:45:17;;;;;;;11.25;2.83;;;;;;;8.30;79.05;99919.72;4191666;28;20044;-61
2022/11/24 00:47:20;;;;;;;10.07;2.47;;;;;;;8.28;79.08;99916.28;4188970;28;20048;-61
2022/11/24 00:49:24;;;;;;;12.68;2.90;;;;;;;8.24;79.03;99917.06;4192037;28;20506;-61
2022/11/24 00:51:29;;;;;;;12.95;3.60;;;;;;;8.20;78.70;99928.22;4188590;28;20187;-61
2022/11/24 00:53:31;;;;;;;;;;;;;;;8.02;79.53;99921.91;4196673;28;20044;-61
2022/11/24 00:55:34;;;;;;;14.88;4.47;;;;;;;7.99;79.99;99921.88;4197185;28;19924;-61
2022/11/24 00:57:37;;;;;;;15.10;3.88;;;;;;;8.02;80.14;99921.91;4197538;28;20032;-61
2022/11/24 00:59:40;;;;;;;15.38;5.38;;;;;;;8.04;80.01;99924.50;4196146;28;20537;-61
2022/11/24 01:01:42;;;;;;;19.45;5.80;;;;;;;7.96;80.40;99932.16;4188078;28;20060;-61
2022/11/24 01:03:46;;;;;;;20.05;6.05;;;;;;;7.95;80.62;99938.19;4190386;28;20086;-61
2022/11/24 01:05:50;;;;;;;21.30;5.90;;;;;;;7.96;80.51;99944.25;4195983;28;20045;-60
2022/11/24 01:07:53;;;;;;;16.98;5.07;;;;;;;7.98;80.66;99943.41;4163206;28;20037;-61
2022/11/24 01:09:56;;;;;;;17.17;5.82;;;;;;;8.00;80.82;99944.31;4182865;28;20041;-61
2022/11/24 01:12:02;;;;;;;14.40;5.88;;;;;;;8.03;80.65;99952.13;4195355;28;20068;-61
2022/11/24 01:14:05;;;;;;;18.20;5.13;;;;;;;8.09;80.81;99956.53;4184703;28;20045;-61
2022/11/24 01:16:14;;;;;;;12.85;5.32;;;;;;;8.18;80.53;99958.41;4188866;28;20525;-61
2022/11/24 01:18:17;;;;;;;21.80;5.47;;;;;;;8.22;80.58;99957.63;4192119;28;20455;-61
2022/11/24 01:20:20;;;;;;;18.55;5.28;;;;;;;8.29;79.96;99964.59;4196880;28;20064;-61
2022/11/24 01:22:26;;;;;;;14.95;5.22;;;;;;;8.34;79.87;99965.56;4187762;28;20032;-61
2022/11/24 01:24:29;;;;;;;15.68;5.20;;;;;;;8.39;79.60;99969.06;4188932;28;20060;-61
2022/11/24 01:26:31;;;;;;;16.77;5.13;;;;;;;8.39;79.63;99974.25;4186822;28;20041;-61
2022/11/24 01:28:35;;;;;;;22.92;5.53;;;;;;;8.40;79.52;99975.16;4189755;28;20063;-61
2022/11/24 01:30:41;;;;;;;15.25;5.45;;;;;;;8.42;79.23;99975.16;4180710;28;20502;-61
2022/11/24 01:32:43;;;;;;;19.73;4.90;;;;;;;8.44;79.53;99983.81;4179388;28;20047;-61
2022/11/24 01:34:46;;;;;;;18.90;4.95;;;;;;;8.54;79.20;99976.25;4187522;28;20465;-61
2022/11/24 01:36:49;;;;;;;16.60;4.80;;;;;;;8.60;79.39;99972.00;4197157;28;20064;-61
2022/11/24 01:38:53;;;;;;;18.27;4.40;;;;;;;8.66;78.83;99979.84;4192484;28;20044;-61
2022/11/24 01:41:03;;;;;;;15.45;3.78;;;;;;;8.65;78.93;99988.50;4180138;28;20072;-61
2022/11/24 01:43:16;;;;;;;16.42;3.83;;;;;;;8.62;78.84;99994.50;4173089;28;20049;-61
2022/11/24 01:45:34;;;;;;;14.02;3.85;;;;;;;8.66;78.72;100001.47;4180257;28;20103;-61
2022/11/24 01:47:40;;;;;;;17.33;4.65;;;;;;;8.69;78.32;100001.50;4190625;28;20044;-61
2022/11/24 01:49:47;;;;;;;19.90;3.95;;;;;;;8.73;78.19;100000.72;4196809;28;20047;-61
2022/11/24 01:51:55;;;;;;;15.50;3.75;;;;;;;8.82;78.11;100009.44;4194123;28;20041;-61
2022/11/24 01:54:02;;;;;;;15.43;3.30;;;;;;;8.84;77.65;100007.75;4182616;28;20044;-61
2022/11/24 01:56:06;;;;;;;22.13;3.78;;;;;;;8.86;77.66;100006.94;4187856;28;20036;-61
2022/11/24 01:58:13;;;;;;;13.80;3.53;;;;;;;8.83;77.80;100017.25;4188464;28;20041;-61
2022/11/24 02:00:17;;;;;;;14.30;2.58;;;;;;;8.83;77.74;100011.19;4190002;28;20041;-61
2022/11/24 02:02:21;;;;;;;11.88;3.15;;;;;;;8.85;77.90;100010.38;4193335;28;20375;-61
2022/11/24 02:04:28;;;;;;;14.95;2.75;;;;;;;8.92;78.06;100008.72;4194211;28;20115;-61
2022/11/24 02:06:35;;;;;;;13.57;2.97;;;;;;;8.90;77.73;100010.44;4183636;28;20037;-61
2022/11/24 02:09:03;;;;;;;10.63;2.80;;;;;;;8.92;78.04;100006.13;4173530;28;20041;-61
2022/11/24 02:11:06;;;;;;;13.32;2.75;;;;;;;8.94;77.75;100008.78;4178727;28;20048;-61
2022/11/24 02:13:10;;;;;;;13.27;2.88;;;;;;;8.94;77.78;100006.19;4177857;28;20060;-61
2022/11/24 02:15:15;;;;;;;11.65;2.63;;;;;;;9.04;77.17;100010.63;4180371;28;20045;-61
2022/11/24 02:17:18;;;;;;;16.90;2.75;;;;;;;9.02;77.41;100008.03;4164997;28;20503;-61
2022/11/24 02:19:30;;;;;;;16.55;3.20;;;;;;;9.02;77.16;100002.84;4151263;28;20474;-61
2022/11/24 02:21:33;;;;;;;7.43;2.20;;;;;;;9.02;76.84;99999.34;4164851;28;20462;-61
2022/11/24 02:23:45;;;;;;;13.30;2.97;;;;;;;9.05;76.75;100000.28;4177965;28;20107;-62
2022/11/24 02:25:58;;;;;;;14.27;2.75;;;;;;;9.05;77.15;99997.69;4179783;28;20044;-61
2022/11/24 02:28:06;;;;;;;11.02;2.55;;;;;;;9.02;76.72;100000.25;4177839;28;20049;-61
2022/11/24 02:30:10;;;;;;;19.30;3.35;;;;;;;9.02;77.04;100002.84;4149208;28;20470;-61
2022/11/24 02:32:12;;;;;;;19.52;4.72;;;;;;;9.09;77.05;100003.78;4164598;28;20103;-61
2022/11/24 02:34:15;;;;;;;11.40;3.45;;;;;;;9.02;77.12;100008.03;4161996;28;20087;-61
2022/11/24 02:36:18;;;;;;;11.05;2.78;;;;;;;8.94;77.39;100012.22;4163112;28;20080;-61
2022/11/24 02:38:30;;;;;;;10.07;3.03;;;;;;;8.94;77.06;100007.03;4178901;28;20037;-61
2022/11/24 02:40:33;;;;;;;13.40;2.97;;;;;;;8.89;77.00;100008.69;4179188;28;20049;-61
2022/11/24 02:42:41;;;;;;;14.38;2.58;;;;;;;8.88;77.11;100004.38;4188647;28;20036;-61
2022/11/24 02:44:48;;;;;;;11.60;2.65;;;;;;;8.87;77.21;100006.06;4183977;28;20437;-61
2022/11/24 02:47:01;;;;;;;14.68;3.95;;;;;;;8.79;77.37;100005.13;4197916;28;20090;-61
2022/11/24 02:49:04;;;;;;;14.63;2.97;;;;;;;8.76;77.65;100004.19;4186621;28;20041;-61
2022/11/24 02:51:07;;;;;;;14.85;3.40;;;;;;;8.82;77.59;100001.66;4197807;28;20044;-61
2022/11/24 02:53:10;;;;;;;11.70;2.38;;;;;;;8.86;77.19;100001.75;4185440;28;20048;-61
2022/11/24 02:55:13;;;;;;;10.88;2.42;;;;;;;8.86;77.41;100006.06;4198538;28;20509;-61
2022/11/24 02:57:16;;;;;;;15.15;3.05;;;;;;;8.89;77.27;100000.91;4195147;28;20097;-61
2022/11/24 02:59:19;;;;;;;12.00;2.75;;;;;;;8.88;76.65;100005.22;4183863;28;20053;-61
2022/11/24 03:01:23;;;;;;;14.43;2.55;;;;;;;8.77;77.45;100017.16;4182778;28;20548;-61
2022/11/24 03:03:27;;;;;;;14.85;3.10;;;;;;;8.72;77.41;100022.28;4190010;28;20044;-61
2022/11/24 03:05:30;;;;;;;13.23;3.15;;;;;;;8.76;77.20;100019.72;4188781;28;20540;-61
2022/11/24 03:07:33;;;;;;;11.30;3.53;;;;;;;8.82;77.18;100019.81;4183685;28;20429;-61
2022/11/24 03:09:35;;;;;;;16.63;3.78;;;;;;;8.79;77.41;100012.00;4192309;28;20037;-61
2022/11/24 03:11:40;;;;;;;11.18;2.25;;;;;;;8.79;77.34;100023.25;4185355;28;20029;-61
2022/11/24 03:13:43;;;;;;;16.80;4.15;;;;;;;8.88;77.33;100013.00;4198279;28;20037;-61
2022/11/24 03:15:45;;;;;;;17.73;2.90;;;;;;;8.92;76.61;100021.69;4183891;28;20098;-61
2022/11/24 03:17:50;;;;;;;12.80;3.28;;;;;;;8.79;77.08;100020.66;4183158;28;20041;-61
2022/11/24 03:19:53;;;;;;;14.15;3.47;;;;;;;8.83;77.19;100018.97;4182149;28;20044;-61
2022/11/24 03:21:55;;;;;;;19.58;3.63;;;;;;;8.85;77.37;100018.16;4185170;28;20099;-61
2022/11/24 03:23:59;;;;;;;17.38;3.88;;;;;;;8.89;77.22;100012.16;4193273;28;20396;-61
2022/11/24 03:26:08;;;;;;;12.20;3.42;;;;;;;8.95;76.80;100006.19;4197507;28;20441;-61
2022/11/24 03:28:11;;;;;;;14.68;3.45;;;;;;;9.00;76.80;100019.22;4181967;28;20045;-61
2022/11/24 03:30:15;;;;;;;14.95;3.58;;;;;;;8.92;77.21;100021.69;4193895;28;20040;-61
2022/11/24 03:32:18;;;;;;;13.20;3.25;;;;;;;8.85;77.46;100017.28;4181692;28;20037;-61
2022/11/24 03:34:22;;;;;;;13.35;4.30;;;;;;;8.79;77.44;100014.59;4183700;28;20104;-61
2022/11/24 03:36:25;;;;;;;18.55;3.35;;;;;;;8.87;77.28;100013.84;4191136;28;20040;-61
2022/11/24 03:38:28;;;;;;;12.77;3.45;;;;;;;8.89;77.39;100011.28;4186479;28;20140;-61
2022/11/24 03:40:30;;;;;;;15.82;3.33;;;;;;;8.96;77.25;100013.09;4187570;28;20124;-61
2022/11/24 03:42:33;;;;;;;13.10;3.85;;;;;;;9.04;76.82;100021.00;4180886;28;20037;-61
2022/11/24 03:44:36;;;;;;;11.35;2.60;;;;;;;8.94;77.23;100017.41;4203943;28;20036;-61
2022/11/24 03:46:39;;;;;;;14.60;3.97;;;;;;;8.95;77.53;100021.75;4181286;28;20376;-61
2022/11/24 03:48:42;;;;;;;17.05;4.13;;;;;;;9.08;77.03;100018.47;4195055;28;20040;-61
2022/11/24 03:50:53;;;;;;;14.00;3.53;;;;;;;9.07;76.60;100019.31;4181389;28;20060;-61
2022/11/24 03:52:56;;;;;;;19.42;3.80;;;;;;;8.99;77.14;100022.66;4181701;28;20041;-61
2022/11/24 03:54:58;;;;;;;12.25;3.28;;;;;;;8.99;77.36;100026.09;4184884;28;20563;-61
2022/11/24 03:57:01;;;;;;;13.15;3.00;;;;;;;8.97;77.61;100026.97;4186273;28;20484;-61
2022/11/24 03:59:04;;;;;;;14.05;4.00;;;;;;;8.95;77.66;100026.94;4192250;28;20066;-61
2022/11/24 04:01:07;;;;;;;13.65;2.60;;;;;;;8.95;77.77;100033.81;4184577;28;20037;-61
2022/11/24 04:03:10;;;;;;;12.05;3.72;;;;;;;9.03;77.22;100030.47;4186701;28;20048;-61
2022/11/24 04:05:13;;;;;;;14.98;2.85;;;;;;;9.02;77.08;100027.88;4181049;28;20033;-61
2022/11/24 04:07:18;;;;;;;17.50;3.58;;;;;;;9.04;77.10;100027.06;4182873;28;20044;-61
2022/11/24 04:09:21;;;;;;;15.90;3.40;;;;;;;9.00;77.23;100020.06;4194308;28;20033;-61
2022/11/24 04:13:47;;;;;;;18.80;3.50;;;;;;;8.99;77.38;100030.44;4189659;28;20506;-61
2022/11/24 04:15:50;;;;;;;16.88;3.90;;;;;;;9.03;77.15;100027.91;4194634;28;20472;-61
2022/11/24 04:17:55;;;;;;;11.32;3.15;;;;;;;9.05;77.03;100034.00;4189543;28;20047;-61
2022/11/24 04:19:58;;;;;;;12.93;2.97;;;;;;;8.99;77.42;100027.84;4189726;28;20068;-61
2022/11/24 04:22:01;;;;;;;17.77;3.08;;;;;;;8.98;77.55;100031.28;4185430;28;20037;-61
2022/11/24 04:24:06;;;;;;;17.60;4.20;;;;;;;8.98;77.65;100026.97;4193990;28;20033;-61
2022/11/24 04:26:08;;;;;;;15.68;3.42;;;;;;;8.95;77.50;100037.31;4186631;28;20506;-61
2022/11/24 04:28:11;;;;;;;13.95;3.35;;;;;;;9.05;76.97;100039.19;4197878;28;20150;-61
2022/11/24 04:30:14;;;;;;;17.73;3.20;;;;;;;8.98;77.13;100041.63;4191217;28;20544;-61
2022/11/24 04:32:17;;;;;;;11.88;3.00;;;;;;;8.93;77.33;100036.41;4193399;28;20074;-61
2022/11/24 04:34:19;;;;;;;15.55;3.08;;;;;;;8.99;77.07;100038.22;4196987;28;20386;-61
2022/11/24 04:36:22;;;;;;;23.02;3.70;;;;;;;9.01;77.17;100042.56;4197666;28;20478;-61
2022/11/24 04:38:25;;;;;;;23.88;4.25;;;;;;;9.02;77.15;100048.63;4184132;28;20124;-61
2022/11/24 04:40:49;;;;;;;13.73;3.15;;;;;;;9.00;77.52;100058.09;4180628;28;20045;-61
2022/11/24 04:42:54;;;;;;;17.08;3.28;;;;;;;8.99;77.24;100054.63;4179790;28;20415;-61
2022/11/24 04:44:57;;;;;;;16.50;3.63;;;;;;;8.91;77.50;100067.50;4188579;28;20379;-61
2022/11/24 04:47:00;;;;;;;17.13;4.10;;;;;;;8.93;77.44;100064.06;4177868;28;20080;-63
2022/11/24 04:49:03;;;;;;;17.70;4.10;;;;;;;9.04;77.79;100052.97;4181480;28;20087;-63
2022/11/24 04:51:06;;;;;;;12.07;3.17;;;;;;;8.98;77.74;100073.66;4197221;28;20436;-62
2022/11/24 04:53:10;;;;;;;14.02;3.60;;;;;;;9.05;77.15;100065.09;4183545;28;20522;-62
2022/11/24 04:55:13;;;;;;;14.98;2.80;;;;;;;8.90;77.52;100070.91;4186843;28;20091;-62
2022/11/24 04:57:19;;;;;;;17.77;4.50;;;;;;;9.07;77.07;100068.59;4180932;28;20040;-63
2022/11/24 04:59:22;;;;;;;17.50;3.67;;;;;;;8.93;77.35;100075.28;4184521;28;20037;-62
2022/11/24 05:01:25;;;;;;;17.38;3.83;;;;;;;8.88;77.89;100071.78;4183750;28;20116;-62
2022/11/24 05:03:28;;;;;;;16.50;4.15;;;;;;;8.98;77.55;100075.34;4193258;28;20047;-62
2022/11/24 05:05:31;;;;;;;11.90;2.72;;;;;;;8.99;77.64;100070.19;4196191;28;20041;-62
2022/11/24 05:07:34;;;;;;;12.02;3.50;;;;;;;9.08;77.08;100066.84;4190436;28;20036;-62
2022/11/24 05:10:33;;;;;;;17.25;3.85;;;;;;;9.07;76.62;100076.34;4186092;28;20090;-62
2022/11/24 05:12:01;;;;;;;14.82;3.45;;;;;;;9.05;77.23;100075.47;4183950;28;20032;-62
2022/11/24 05:14:05;;;;;;;15.98;3.83;;;;;;;8.96;77.12;100074.47;4192413;28;20090;-62
2022/11/24 05:16:09;;;;;;;11.80;2.92;;;;;;;8.97;77.09;100077.06;4181588;28;20067;-62
2022/11/24 05:18:15;;;;;;;19.33;3.83;;;;;;;8.98;77.35;100084.00;4183233;28;20056;-62
2022/11/24 05:20:18;;;;;;;17.25;3.40;;;;;;;8.90;77.17;100085.63;4184321;28;20037;-63
2022/11/24 05:22:21;;;;;;;18.95;4.43;;;;;;;8.89;77.17;100083.84;4195065;28;20387;-62
2022/11/24 05:24:24;;;;;;;13.80;3.22;;;;;;;8.94;77.08;100092.59;4185329;28;20036;-62
2022/11/24 05:26:27;;;;;;;19.05;3.53;;;;;;;8.94;76.95;100087.41;4188343;28;20120;-62
2022/11/24 05:28:30;;;;;;;11.77;3.42;;;;;;;8.98;76.89;100096.97;4196059;28;20036;-62
2022/11/24 05:30:36;;;;;;;18.48;4.40;;;;;;;9.12;76.62;100107.53;4193847;28;20119;-62
2022/11/24 05:32:39;;;;;;;14.80;3.65;;;;;;;9.06;76.37;100095.34;4180561;28;20494;-62
2022/11/24 05:34:42;;;;;;;16.83;3.65;;;;;;;9.07;76.90;100104.03;4182885;28;20051;-63
2022/11/24 05:36:55;;;;;;;14.18;2.95;;;;;;;9.05;76.62;100109.19;4195751;28;20044;-62
2022/11/24 05:38:58;;;;;;;14.55;3.28;;;;;;;8.95;76.91;100103.81;4190539;28;20041;-62
2022/11/24 05:41:01;;;;;;;22.63;4.38;;;;;;;8.94;76.71;100104.69;4188217;28;20103;-62
2022/11/24 05:43:04;;;;;;;15.32;3.97;;;;;;;8.94;77.00;100108.16;4184774;28;20075;-62
2022/11/24 05:45:09;;;;;;;18.75;4.10;;;;;;;9.00;76.80;100110.81;4196426;28;20052;-62
2022/11/24 05:47:13;;;;;;;15.77;4.63;;;;;;;9.06;76.73;100105.72;4187497;28;20028;-62
2022/11/24 05:49:16;;;;;;;17.83;3.05;;;;;;;9.12;76.40;100104.94;4180298;28;20037;-62
2022/11/24 05:51:19;;;;;;;19.13;3.72;;;;;;;9.17;75.91;100105.00;4180486;28;20071;-62
2022/11/24 05:53:22;;;;;;;13.70;4.70;;;;;;;9.16;76.07;100111.06;4181435;28;20438;-62
2022/11/24 05:55:25;;;;;;;22.35;3.90;;;;;;;9.19;76.66;100111.09;4188416;28;20044;-62
2022/11/24 05:57:28;;;;;;;14.85;3.63;;;;;;;9.18;76.50;100111.94;4183076;28;20127;-62
2022/11/24 05:59:31;;;;;;;15.80;3.58;;;;;;;9.17;76.31;100118.88;4180376;28;20415;-62
2022/11/24 06:01:34;;;;;;;18.60;4.65;;;;;;;9.15;76.45;100123.13;4180365;28;20072;-62
2022/11/24 06:03:38;;;;;;;15.43;3.15;;;;;;;9.17;76.45;100117.97;4179545;28;20037;-62
2022/11/24 06:05:46;;;;;;;19.55;4.18;;;;;;;9.20;76.45;100112.81;4180340;28;20041;-62
2022/11/24 06:07:49;;;;;;;17.63;3.95;;;;;;;9.25;76.37;100114.63;4181324;28;20068;-62
2022/11/24 06:09:52;;;;;;;26.05;5.93;;;;;;;9.22;76.33;100106.81;4180016;28;20135;-62
2022/11/24 06:11:55;;;;;;;20.30;3.53;;;;;;;9.19;76.67;100116.28;4189430;28;20041;-62
2022/11/24 06:13:58;;;;;;;16.98;3.80;;;;;;;9.24;76.13;100119.81;4194698;28;20036;-62
2022/11/24 06:16:01;;;;;;;17.65;3.97;;;;;;;9.16;76.94;100137.00;4196723;28;20547;-62
2022/11/24 06:18:04;;;;;;;20.10;3.80;;;;;;;9.19;76.82;100144.81;4196793;28;20044;-62
2022/11/24 06:20:10;;;;;;;15.55;4.38;;;;;;;9.09;76.88;100138.63;4196810;28;20045;-62
2022/11/24 06:22:13;;;;;;;22.60;4.55;;;;;;;9.09;77.36;100138.63;4186401;28;20036;-62
2022/11/24 06:24:16;;;;;;;20.70;4.20;;;;;;;8.97;77.75;100141.03;4184047;28;20033;-62
2022/11/24 06:26:19;;;;;;;25.80;3.95;;;;;;;8.93;78.11;100147.88;4184261;28;20498;-62
2022/11/24 06:28:21;;;;;;;16.42;3.63;;;;;;;8.91;78.37;100145.25;4162424;28;20057;-62
2022/11/24 06:30:24;;;;;;;23.83;5.00;;;;;;;8.99;78.63;100152.28;4180265;28;20063;-62
2022/11/24 06:32:27;;;;;;;20.63;3.70;;;;;;;9.04;78.16;100150.66;4180106;28;20045;-62
2022/11/24 06:34:30;;;;;;;17.80;3.58;;;;;;;8.93;78.79;100155.66;4179262;28;20075;-62
2022/11/24 06:36:34;;;;;;;21.40;4.63;;;;;;;8.89;78.92;100153.84;4179984;28;20037;-62
2022/11/24 06:38:37;;;;;;;25.40;5.65;;;;;;;8.74;79.45;100162.25;4186727;28;20071;-62
2022/11/24 06:40:40;;;;;;;13.85;3.13;;;;;;;8.83;79.64;100154.63;4182297;28;20048;-62
2022/11/24 06:42:50;;;;;;;17.02;3.35;;;;;;;8.87;79.41;100155.56;4183059;28;20402;-62
2022/11/24 06:44:53;;;;;;;19.05;4.25;;;;;;;8.95;79.24;100153.97;4182206;28;20037;-63
2022/11/24 06:46:56;;;;;;;16.23;3.55;;;;;;;8.84;78.65;100147.75;4182962;28;20120;-62
2022/11/24 06:48:59;;;;;;;20.35;3.53;;;;;;;8.78;79.21;100156.28;4181623;28;20048;-62
2022/11/24 06:51:03;;;;;;;22.10;3.80;;;;;;;8.76;79.55;100155.41;4183099;28;20402;-62
2022/11/24 06:53:07;;;;;;;21.20;4.68;;;;;;;8.86;79.43;100161.59;4181937;28;20453;-62
2022/11/24 06:55:10;;;;;;;18.63;3.97;;;;;;;8.89;79.28;100162.53;4190539;28;20415;-62
2022/11/24 06:57:13;;;;;;;19.92;4.32;;;;;;;8.82;79.20;100171.03;4194326;28;20541;-62
2022/11/24 06:59:18;;;;;;;14.88;3.10;;;;;;;8.82;79.34;100170.16;4199300;28;20041;-62
2022/11/24 07:01:22;;;;;;;16.77;3.28;;;;;;;8.70;79.59;100179.50;4181466;28;20049;-62
2022/11/24 07:03:25;;;;;;;19.85;4.38;;;;;;;8.53;79.94;100186.94;4197302;28;20097;-62
2022/11/24 07:05:28;;;;;;;15.43;4.03;;;;;;;8.52;80.22;100181.75;4199207;28;20072;-62
2022/11/24 07:07:31;;;;;;;17.33;3.42;;;;;;;8.55;80.14;100184.38;4198094;28;20094;-62
2022/11/24 07:09:35;;;;;;;17.77;3.80;;;;;;;8.70;80.25;100186.38;4189711;28;20090;-62
2022/11/24 07:11:39;;;;;;;14.82;3.65;;;;;;;8.71;80.14;100188.13;4190995;28;20037;-62
2022/11/24 07:13:43;;;;;;;19.77;3.60;;;;;;;8.77;79.68;100188.22;4180628;28;20040;-62
2022/11/24 07:15:45;;;;;;;13.35;3.00;;;;;;;8.80;79.61;100196.03;4182525;28;20051;-62
2022/11/24 07:17:48;;;;;;;15.27;3.75;;;;;;;8.78;79.71;100200.34;4181113;28;20095;-62
2022/11/24 07:19:51;;;;;;;13.93;3.45;;;;;;;8.80;79.79;100200.38;4182442;28;20048;-62
2022/11/24 07:21:54;;;;;;;12.50;3.20;;;;;;;8.87;79.63;100202.22;4181712;28;20520;-62
2022/11/24 07:23:58;;;;;;;12.55;2.58;;;;;;;8.87;79.66;100210.84;4188176;28;20464;-62
2022/11/24 07:26:03;;;;;;;14.20;3.95;;;;;;;8.90;79.78;100217.81;4192164;28;20032;-62
2022/11/24 07:28:08;;;;;;;17.52;3.20;;;;;;;8.94;79.46;100222.22;4198945;28;20047;-62
2022/11/24 07:30:12;;;;;;;10.77;2.38;;;;;;;8.98;79.41;100220.53;4180999;28;20506;-62
2022/11/24 07:32:15;;;;;;;18.17;4.75;;;;;;;8.86;79.24;100226.38;4199217;28;20123;-62
2022/11/24 07:34:18;;;;;;;15.02;3.65;;;;;;;8.86;79.76;100226.38;4196834;28;20285;-62
2022/11/24 07:36:21;;;;;;;14.80;3.53;;;;;;;8.88;79.43;100229.91;4198739;28;20041;-62
2022/11/24 07:38:24;;;;;;;13.77;4.03;;;;;;;8.90;79.56;100231.66;4190327;28;20033;-62
2022/11/24 07:40:27;;;;;;;14.30;2.92;;;;;;;8.94;79.38;100237.78;4194394;28;20048;-62
2022/11/24 07:42:31;;;;;;;19.50;4.40;;;;;;;9.07;79.34;100234.53;4179898;28;20049;-62
2022/11/24 07:44:34;;;;;;;24.00;4.40;;;;;;;9.00;79.27;100232.69;4187925;28;20036;-62
2022/11/24 07:46:37;;;;;;;10.43;2.65;;;;;;;8.88;79.52;100237.69;4196884;28;20093;-63
2022/11/24 07:48:40;;;;;;;9.80;2.55;;;;;;;8.96;79.68;100246.44;4198570;28;20040;-62
2022/11/24 07:50:43;;;;;;;14.82;3.38;;;;;;;8.94;79.34;100248.16;4198273;28;20098;-62
2022/11/24 07:52:46;;;;;;;16.40;3.20;;;;;;;8.86;79.25;100250.63;4189317;28;20046;-62
2022/11/24 07:54:48;;;;;;;14.90;3.25;;;;;;;8.79;79.50;100248.75;4189199;28;20040;-62
2022/11/24 07:56:51;;;;;;;14.48;3.47;;;;;;;8.73;79.54;100254.69;4195401;28;20148;-62
2022/11/24 07:58:56;;;;;;;14.45;3.70;;;;;;;8.70;79.88;100257.25;4197339;28;20041;-63
2022/11/24 08:00:59;;;;;;;12.88;3.20;;;;;;;8.70;79.78;100267.59;4186666;28;20396;-62
2022/11/24 08:03:02;;;;;;;18.88;3.42;;;;;;;8.60;80.33;100265.69;4190486;28;20045;-62
2022/11/24 08:05:05;;;;;;;14.40;3.05;;;;;;;8.76;79.99;100265.94;4180993;28;20037;-62
2022/11/24 08:07:08;;;;;;;16.33;3.33;;;;;;;8.64;80.06;100275.25;4180510;28;20495;-62
2022/11/24 08:09:11;;;;;;;12.93;3.17;;;;;;;8.64;80.30;100267.47;4181696;28;20521;-62
2022/11/24 08:11:15;;;;;;;14.32;3.55;;;;;;;8.66;80.26;100265.78;4180421;28;20045;-62
2022/11/24 08:13:18;;;;;;;;;;;;;;;8.60;80.53;100268.28;4181816;28;20565;-62
2022/11/24 08:15:22;;;;;;;17.55;2.90;;;;;;;8.64;80.53;100275.25;4188172;28;19920;-62
2022/11/24 08:17:25;;;;;;;10.73;2.55;;;;;;;8.62;80.33;100273.47;4184466;28;20055;-62
2022/11/24 08:19:28;;;;;;;12.50;3.05;;;;;;;8.68;80.23;100271.00;4181459;28;20040;-62
2022/11/24 08:21:31;;;;;;;14.88;3.75;;;;;;;8.66;80.19;100270.97;4186614;28;20047;-62
2022/11/24 08:23:34;;;;;;;15.05;3.15;;;;;;;8.69;80.65;100272.75;4189373;28;20041;-62
2022/11/24 08:25:37;;;;;;;17.50;3.75;;;;;;;8.73;79.85;100279.72;4181488;28;20602;-62
2022/11/24 08:27:40;;;;;;;15.00;3.70;;;;;;;8.71;80.10;100286.59;4182932;28;20044;-62
2022/11/24 08:29:43;;;;;;;17.58;3.80;;;;;;;8.70;80.28;100288.34;4181133;28;20040;-62
2022/11/24 08:31:47;;;;;;;12.57;2.75;;;;;;;8.74;80.26;100292.72;4197464;28;20070;-62
2022/11/24 08:33:50;;;;;;;12.05;2.97;;;;;;;8.78;80.25;100287.59;4197043;28;20119;-62
2022/11/24 08:35:53;;;;;;;12.95;3.35;;;;;;;8.85;80.16;100298.09;4196618;28;20058;-62
2022/11/24 08:37:56;;;;;;;13.90;2.90;;;;;;;8.91;79.44;100298.22;4197689;28;20040;-62
2022/11/24 08:40:07;;;;;;;12.68;4.07;;;;;;;8.88;79.62;100302.50;4196523;28;20094;-62
2022/11/24 08:42:10;;;;;;;16.55;3.75;;;;;;;8.88;79.86;100300.75;4195295;28;20040;-62
2022/11/24 08:44:14;;;;;;;17.58;3.72;;;;;;;8.92;79.37;100301.66;4190472;28;20055;-62
2022/11/24 08:46:18;;;;;;;18.77;4.28;;;;;;;8.96;79.65;100308.66;4181070;28;20041;-62
2022/11/24 08:48:23;;;;;;;16.58;3.92;;;;;;;8.91;79.38;100315.50;4181135;28;20068;-62
2022/11/24 08:50:26;;;;;;;19.48;4.38;;;;;;;8.89;79.61;100317.16;4181044;28;20124;-62
2022/11/24 08:52:29;;;;;;;19.65;3.67;;;;;;;8.99;79.01;100318.22;4184074;28;20036;-62
2022/11/24 08:54:31;;;;;;;14.40;3.47;;;;;;;9.06;78.88;100325.28;4187623;28;20028;-62
2022/11/24 08:56:35;;;;;;;16.05;4.15;;;;;;;9.14;79.07;100320.22;4180626;28;20065;-62
2022/11/24 08:58:39;;;;;;;25.25;4.40;;;;;;;9.11;78.57;100323.63;4177895;28;20368;-62
2022/11/24 09:00:42;;;;;;;20.63;4.03;;;;;;;9.13;78.22;100332.31;4179280;28;20048;-62
2022/11/24 09:02:45;;;;;;;23.17;3.60;;;;;;;9.09;78.61;100336.56;4177350;28;20071;-62
2022/11/24 09:04:50;;;;;;;16.48;3.70;;;;;;;9.23;78.26;100336.81;4178398;28;20037;-62
2022/11/24 09:06:53;;;;;;;;;;;;;;;9.13;77.68;100339.25;4187601;28;20044;-62
2022/11/24 09:08:56;;;;;;;18.17;3.60;;;;;;;9.20;77.98;100341.06;4177987;28;20333;-62
2022/11/24 09:11:00;;;;;;;11.80;3.15;;;;;;;9.25;77.30;100335.13;4180234;28;20037;-62
2022/11/24 09:13:03;;;;;;;14.83;3.70;;;;;;;9.36;77.35;100335.31;4187478;28;20044;-62
2022/11/24 09:15:06;;;;;;;16.50;3.35;;;;;;;9.40;77.44;100326.75;4188294;28;20290;-62
2022/11/24 09:17:09;;;;;;;16.03;3.60;;;;;;;9.50;76.76;100332.06;4180759;28;20041;-62
2022/11/24 09:19:12;;;;;;;12.63;2.65;;;;;;;9.52;77.21;100327.78;4179274;28;20045;-62
2022/11/24 09:21:19;;;;;;;13.05;3.33;;;;;;;9.55;76.38;100340.78;4179324;28;20049;-62
2022/11/24 09:23:21;;;;;;;12.93;2.72;;;;;;;9.61;76.17;100340.91;4179633;28;20040;-63
2022/11/24 09:25:24;;;;;;;12.60;3.42;;;;;;;9.60;76.19;100349.53;4180458;28;20067;-62
2022/11/24 09:27:27;;;;;;;12.55;2.95;;;;;;;9.58;75.49;100361.63;4188169;28;20044;-62
2022/11/24 09:29:30;;;;;;;21.63;3.58;;;;;;;9.68;75.77;100360.94;4194578;28;20040;-62
2022/11/24 09:31:36;;;;;;;21.33;4.30;;;;;;;9.74;75.35;100357.56;4197128;28;20048;-62
2022/11/24 09:33:39;;;;;;;13.57;3.28;;;;;;;9.78;75.31;100364.53;4196545;28;20071;-62
2022/11/24 09:35:42;;;;;;;12.23;3.08;;;;;;;9.73;73.86;100361.00;4195920;28;20044;-62
2022/11/24 09:37:47;;;;;;;11.52;2.47;;;;;;;9.70;74.73;100368.75;4197110;28;20410;-62
2022/11/24 09:39:50;;;;;;;11.10;2.55;;;;;;;9.66;74.51;100370.41;4196973;28;20040;-62